Time;durP1;ratioP1;P1;durP2;ratioP2;P2;SDS_P1;SDS_P2;PMS_P1;PMS_P2;Temp;Humidity;BMP_temperature;BMP_pressure;BME280_temperature;BME280_humidity;BME280_pressure;Samples;Min_cycle;Max_cycle;Signal;HPM_P1;HPM_P2
2024/04/08 00:01:09;;;;;;;3.70;2.28;;;;;;;18.28;50.75;100333.78;5385628;26;20300;-67
2024/04/08 00:03:39;;;;;;;4.20;2.40;;;;;;;18.28;51.05;100332.94;5379825;26;20280;-65
2024/04/08 00:06:06;;;;;;;4.38;2.65;;;;;;;18.25;51.66;100343.47;5398133;26;20291;-66
2024/04/08 00:08:36;;;;;;;7.65;2.63;;;;;;;18.24;51.40;100345.25;5414588;26;20247;-65
2024/04/08 00:11:09;;;;;;;3.63;2.75;;;;;;;18.19;51.64;100336.75;5387596;26;20296;-67
2024/04/08 00:13:39;;;;;;;3.80;2.50;;;;;;;18.18;51.58;100331.59;5381146;26;20344;-65
2024/04/08 00:16:07;;;;;;;3.22;2.33;;;;;;;18.16;51.26;100339.47;5390108;26;20283;-67
2024/04/08 00:18:36;;;;;;;3.65;2.80;;;;;;;18.16;51.31;100334.25;5367905;26;20716;-68
2024/04/08 00:21:07;;;;;;;6.50;2.63;;;;;;;18.18;51.84;100342.88;5381884;26;20299;-65
2024/04/08 00:23:37;;;;;;;4.45;2.42;;;;;;;18.19;51.36;100341.97;5381945;26;20678;-66
2024/04/08 00:26:08;;;;;;;3.25;2.67;;;;;;;18.17;51.85;100338.56;5388311;26;20256;-65
2024/04/08 00:28:39;;;;;;;2.60;2.38;;;;;;;18.15;52.10;100342.97;5379453;26;20228;-66
2024/04/08 00:31:08;;;;;;;4.18;2.50;;;;;;;18.15;52.28;100339.53;5376040;26;20781;-64
2024/04/08 00:33:42;;;;;;;2.50;2.30;;;;;;;18.13;52.28;100334.38;5401490;26;20247;-64
2024/04/08 00:36:09;;;;;;;2.70;2.38;;;;;;;18.14;52.37;100340.44;5391657;26;20531;-66
2024/04/08 00:38:39;;;;;;;3.33;2.42;;;;;;;18.13;52.25;100344.81;5414042;26;20269;-64
2024/04/08 00:41:11;;;;;;;4.45;2.25;;;;;;;18.12;51.99;100331.84;5414455;26;20278;-63
2024/04/08 00:43:38;;;;;;;4.03;2.67;;;;;;;18.14;51.88;100330.84;5385184;26;20248;-64
2024/04/08 00:46:09;;;;;;;4.22;2.67;;;;;;;18.12;52.11;100332.69;5382976;26;20248;-63
2024/04/08 00:48:36;;;;;;;2.70;2.47;;;;;;;18.10;52.30;100347.53;5382412;26;20252;-63
2024/04/08 00:51:07;;;;;;;3.58;2.50;;;;;;;18.09;52.50;100338.84;5404845;26;20243;-65
2024/04/08 00:53:34;;;;;;;3.00;2.30;;;;;;;18.06;52.77;100343.34;5397883;26;20235;-64
2024/04/08 00:56:04;;;;;;;6.30;2.28;;;;;;;17.99;53.20;100337.50;5411649;26;20242;-63
2024/04/08 00:58:38;;;;;;;3.40;2.22;;;;;;;17.97;52.80;100333.25;5416931;26;20765;-63
2024/04/08 01:01:08;;;;;;;4.35;2.63;;;;;;;17.95;53.45;100329.84;5408080;26;20583;-62
2024/04/08 01:03:35;;;;;;;3.83;2.55;;;;;;;17.94;53.18;100330.78;5383099;26;20279;-63
2024/04/08 01:06:05;;;;;;;3.08;2.65;;;;;;;17.93;53.37;100336.88;5378456;26;20256;-62
2024/04/08 01:08:33;;;;;;;4.72;2.63;;;;;;;17.95;52.99;100335.06;5416318;26;20235;-63
2024/04/08 01:11:03;;;;;;;4.07;2.47;;;;;;;17.94;53.49;100334.22;5401947;26;20236;-64
2024/04/08 01:13:30;;;;;;;3.60;2.53;;;;;;;17.93;53.59;100335.13;5396005;26;20240;-62
2024/04/08 01:16:03;;;;;;;5.40;2.95;;;;;;;17.92;53.79;100323.00;5397207;26;20289;-63
2024/04/08 01:18:30;;;;;;;4.05;2.90;;;;;;;17.91;53.81;100328.28;5388344;26;20227;-63
2024/04/08 01:20:59;;;;;;;5.70;2.88;;;;;;;17.88;53.68;100333.59;5387711;26;20289;-63
2024/04/08 01:23:28;;;;;;;4.13;2.65;;;;;;;17.88;54.27;100333.59;5382534;26;20860;-63
2024/04/08 01:26:00;;;;;;;3.20;2.65;;;;;;;17.85;53.79;100329.34;5382291;26;20251;-63
2024/04/08 01:28:28;;;;;;;2.90;2.65;;;;;;;17.81;54.04;100333.81;5382973;26;20353;-63
2024/04/08 01:31:00;;;;;;;3.28;2.97;;;;;;;17.81;53.79;100340.78;5399513;26;20235;-64
2024/04/08 01:33:27;;;;;;;5.15;2.70;;;;;;;17.74;54.00;100337.50;5383672;26;20340;-63
2024/04/08 01:35:59;;;;;;;5.65;2.60;;;;;;;17.72;54.38;100334.13;5392928;26;20340;-63
2024/04/08 01:38:29;;;;;;;4.32;2.67;;;;;;;17.71;54.24;100332.44;5399560;26;20266;-61
2024/04/08 01:40:59;;;;;;;3.08;2.47;;;;;;;17.68;55.10;100329.09;5410303;26;20243;-63
2024/04/08 01:43:29;;;;;;;4.50;2.92;;;;;;;17.65;55.38;100317.00;5380826;26;20244;-63
2024/04/08 01:45:56;;;;;;;4.40;2.83;;;;;;;17.61;55.42;100316.28;5391755;26;20777;-65
2024/04/08 01:48:26;;;;;;;3.00;2.70;;;;;;;17.59;55.57;100317.22;5383831;26;20739;-63
2024/04/08 01:50:56;;;;;;;3.20;2.75;;;;;;;17.58;55.21;100320.75;5390854;26;20360;-63
2024/04/08 01:53:23;;;;;;;3.92;2.90;;;;;;;17.57;55.29;100319.06;5398745;26;20235;-63
2024/04/08 01:55:53;;;;;;;4.63;3.05;;;;;;;17.58;55.80;100315.53;5390233;26;20567;-64
2024/04/08 01:58:22;;;;;;;3.97;2.70;;;;;;;17.55;55.45;100320.84;5397680;26;20355;-63
2024/04/08 02:00:52;;;;;;;3.83;2.92;;;;;;;17.55;55.76;100320.84;5401745;26;20247;-63
2024/04/08 02:03:19;;;;;;;3.22;2.63;;;;;;;17.54;55.91;100327.81;5412715;26;20282;-63
2024/04/08 02:05:49;;;;;;;2.95;2.67;;;;;;;17.54;56.14;100316.56;5396828;26;20338;-63
2024/04/08 02:08:16;;;;;;;3.63;2.40;;;;;;;17.53;55.74;100318.31;5400450;26;20231;-63
2024/04/08 02:10:48;;;;;;;3.95;2.75;;;;;;;17.52;55.49;100320.94;5398030;26;20243;-63
2024/04/08 02:13:15;;;;;;;3.53;3.03;;;;;;;17.49;55.67;100310.63;5400136;26;20694;-63
2024/04/08 02:15:47;;;;;;;7.00;2.88;;;;;;;17.48;56.41;100308.94;5381438;26;20232;-62
2024/04/08 02:18:14;;;;;;;4.07;2.88;;;;;;;17.46;56.53;100316.84;5398354;26;20245;-63
2024/04/08 02:20:44;;;;;;;3.58;2.85;;;;;;;17.46;56.45;100316.84;5377652;26;20438;-61
2024/04/08 02:23:11;;;;;;;3.72;2.40;;;;;;;17.44;56.44;100317.78;5382013;26;20349;-62
2024/04/08 02:25:44;;;;;;;3.92;2.45;;;;;;;17.44;56.20;100318.63;5382892;26;20344;-62
2024/04/08 02:28:11;;;;;;;8.52;2.97;;;;;;;17.42;56.93;100319.59;5410820;26;20332;-63
2024/04/08 02:30:41;;;;;;;3.60;2.67;;;;;;;17.37;56.92;100317.97;5413599;26;20235;-62
2024/04/08 02:33:11;;;;;;;5.07;3.15;;;;;;;17.35;56.88;100319.81;5398045;26;20337;-61
2024/04/08 02:35:41;;;;;;;3.83;3.10;;;;;;;17.31;56.85;100318.22;5389417;26;20311;-62
2024/04/08 02:38:08;;;;;;;3.38;2.83;;;;;;;17.29;57.40;100325.22;5394991;26;20243;-62
2024/04/08 02:40:38;;;;;;;5.38;2.88;;;;;;;17.24;57.50;100336.72;5381786;26;20240;-64
2024/04/08 02:43:08;;;;;;;7.70;3.22;;;;;;;17.18;57.25;100331.72;5379145;26;20893;-61
2024/04/08 02:45:35;;;;;;;4.85;3.13;;;;;;;17.11;57.40;100336.28;5381749;26;20248;-63
2024/04/08 02:48:05;;;;;;;4.55;2.88;;;;;;;17.03;57.67;100331.31;5382776;26;20643;-62
2024/04/08 02:50:35;;;;;;;4.03;3.38;;;;;;;16.97;58.26;100322.88;5401778;26;20339;-62
2024/04/08 02:53:05;;;;;;;2.83;2.53;;;;;;;16.96;58.41;100326.38;5387146;26;20347;-63
2024/04/08 02:55:33;;;;;;;4.95;3.00;;;;;;;16.94;58.76;100329.03;5410694;26;20244;-63
2024/04/08 02:58:02;;;;;;;3.72;2.85;;;;;;;16.94;59.08;100322.97;5402734;26;20235;-63
2024/04/08 03:00:30;;;;;;;5.13;3.10;;;;;;;16.95;58.89;100322.06;5415778;26;20701;-62
2024/04/08 03:02:59;;;;;;;4.20;2.67;;;;;;;16.93;58.77;100321.25;5384485;26;20240;-64
2024/04/08 03:05:27;;;;;;;3.17;2.50;;;;;;;16.91;59.37;100318.72;5390078;26;20795;-63
2024/04/08 03:08:00;;;;;;;4.07;2.60;;;;;;;16.92;59.33;100320.41;5407211;26;20232;-64
2024/04/08 03:10:27;;;;;;;3.40;2.88;;;;;;;16.95;59.56;100309.91;5396808;26;20303;-63
2024/04/08 03:12:57;;;;;;;6.32;2.90;;;;;;;16.96;59.79;100314.22;5394615;26;20291;-64
2024/04/08 03:15:24;;;;;;;5.05;3.33;;;;;;;16.97;60.05;100312.44;5379543;26;20727;-62
2024/04/08 03:17:54;;;;;;;4.40;3.05;;;;;;;16.97;59.66;100315.06;5395851;26;20356;-64
2024/04/08 03:20:21;;;;;;;3.85;3.00;;;;;;;16.96;59.48;100313.34;5360793;26;20606;-63
2024/04/08 03:22:50;;;;;;;4.88;2.90;;;;;;;16.97;59.52;100315.91;5379743;26;20875;-64
2024/04/08 03:25:20;;;;;;;3.80;2.90;;;;;;;16.95;60.13;100315.13;5397551;26;20619;-66
2024/04/08 03:27:54;;;;;;;4.72;2.50;;;;;;;16.93;59.79;100310.84;5407287;26;20236;-63
2024/04/08 03:30:21;;;;;;;5.05;2.60;;;;;;;16.89;59.97;100297.94;5381192;26;20337;-64
2024/04/08 03:32:53;;;;;;;3.67;2.78;;;;;;;16.86;60.14;100298.06;5397836;26;20282;-67
2024/04/08 03:35:20;;;;;;;5.53;2.92;;;;;;;16.82;60.35;100291.22;5403282;26;20279;-63
2024/04/08 03:37:50;;;;;;;4.18;3.00;;;;;;;16.79;60.21;100285.28;5391702;26;20672;-64
2024/04/08 03:40:23;;;;;;;4.93;3.13;;;;;;;16.73;60.95;100285.47;5365613;26;20793;-65
2024/04/08 03:42:53;;;;;;;5.63;3.65;;;;;;;16.69;61.17;100289.94;5387653;26;20228;-64
2024/04/08 03:45:23;;;;;;;3.95;3.13;;;;;;;16.66;61.27;100288.25;5407709;26;20231;-64
2024/04/08 03:47:54;;;;;;;5.47;3.28;;;;;;;16.67;61.13;100289.09;5395507;26;20236;-64
2024/04/08 03:50:21;;;;;;;4.05;2.80;;;;;;;16.70;61.13;100299.41;5385860;26;20759;-65
2024/04/08 03:52:51;;;;;;;5.70;3.25;;;;;;;16.68;61.91;100293.44;5413781;26;20317;-63
2024/04/08 03:55:22;;;;;;;4.85;3.05;;;;;;;16.66;61.40;100292.63;5414908;26;20235;-65
2024/04/08 03:57:52;;;;;;;5.93;3.63;;;;;;;16.65;61.93;100293.53;5407521;26;20339;-64
2024/04/08 04:00:20;;;;;;;6.75;2.97;;;;;;;16.62;61.64;100293.63;5381172;26;20731;-65
2024/04/08 04:02:51;;;;;;;4.15;2.97;;;;;;;16.64;61.96;100297.00;5389662;26;20703;-64
2024/04/08 04:05:18;;;;;;;4.25;3.10;;;;;;;16.65;62.17;100296.97;5395639;26;20654;-64
2024/04/08 04:07:49;;;;;;;4.30;2.95;;;;;;;16.65;61.69;100296.13;5409063;26;20295;-63
2024/04/08 04:10:19;;;;;;;4.80;3.28;;;;;;;16.66;62.00;100297.81;5381243;26;20243;-63
2024/04/08 04:12:49;;;;;;;4.03;3.45;;;;;;;16.63;62.23;100290.97;5398287;26;20252;-64
2024/04/08 04:15:19;;;;;;;4.85;2.92;;;;;;;16.62;62.21;100285.81;5397762;26;20358;-66
2024/04/08 04:17:46;;;;;;;5.15;3.25;;;;;;;16.62;62.81;100275.41;5376223;26;20282;-65
2024/04/08 04:20:18;;;;;;;3.35;2.80;;;;;;;16.60;62.57;100283.25;5385568;26;20232;-65
2024/04/08 04:22:46;;;;;;;5.40;3.47;;;;;;;16.60;62.78;100291.06;5395464;26;20236;-65
2024/04/08 04:25:16;;;;;;;8.52;3.08;;;;;;;16.60;62.42;100298.00;5377966;26;20283;-64
2024/04/08 04:27:43;;;;;;;4.45;3.25;;;;;;;16.61;62.87;100290.19;5393527;26;20234;-63
2024/04/08 04:30:17;;;;;;;3.97;3.20;;;;;;;16.60;62.99;100290.22;5403075;26;20231;-65
2024/04/08 04:32:44;;;;;;;4.95;3.80;;;;;;;16.63;63.20;100287.50;5405648;26;20236;-65
2024/04/08 04:35:16;;;;;;;6.22;3.40;;;;;;;16.65;62.66;100286.56;5382619;26;20579;-66
2024/04/08 04:37:44;;;;;;;4.25;3.03;;;;;;;16.67;62.74;100300.38;5375362;26;20244;-65
2024/04/08 04:40:13;;;;;;;3.80;3.17;;;;;;;16.71;63.19;100306.31;5383696;26;20711;-65
2024/04/08 04:42:43;;;;;;;3.83;3.45;;;;;;;16.73;62.77;100312.34;5380887;26;20669;-65
2024/04/08 04:45:13;;;;;;;3.53;2.83;;;;;;;16.75;62.80;100305.34;5387463;26;20244;-66
2024/04/08 04:47:43;;;;;;;4.55;2.97;;;;;;;16.77;62.46;100306.16;5400991;26;20344;-65
2024/04/08 04:50:13;;;;;;;4.25;3.33;;;;;;;16.78;62.33;100297.44;5384996;26;20244;-65
2024/04/08 04:52:40;;;;;;;4.63;3.30;;;;;;;16.82;62.50;100299.03;5380121;26;20227;-64
2024/04/08 04:55:10;;;;;;;6.03;3.70;;;;;;;16.84;63.07;100302.47;5384945;26;20268;-65
2024/04/08 04:57:37;;;;;;;4.03;3.17;;;;;;;16.89;62.88;100303.16;5377336;26;20236;-64
2024/04/08 05:00:09;;;;;;;3.85;3.20;;;;;;;16.95;62.73;100299.50;5383220;26;20223;-64
2024/04/08 05:02:36;;;;;;;3.83;3.15;;;;;;;16.95;62.40;100303.84;5380102;26;20761;-64
2024/04/08 05:05:09;;;;;;;8.68;3.85;;;;;;;16.92;61.82;100312.63;5412933;26;20235;-65
2024/04/08 05:07:36;;;;;;;8.15;3.90;;;;;;;16.89;62.87;100307.50;5389218;26;20236;-64
2024/04/08 05:10:06;;;;;;;6.28;3.70;;;;;;;16.87;63.02;100310.16;5406265;26;20243;-65
2024/04/08 05:12:34;;;;;;;6.28;3.30;;;;;;;16.87;62.48;100304.97;5413249;26;20266;-65
2024/04/08 05:15:03;;;;;;;6.07;3.20;;;;;;;16.90;62.90;100299.66;5393261;26;20248;-63
2024/04/08 05:17:31;;;;;;;4.63;3.30;;;;;;;16.97;62.67;100295.06;5381577;26;20739;-63
2024/04/08 05:20:03;;;;;;;7.07;3.58;;;;;;;17.03;62.42;100291.44;5380953;26;20244;-64
2024/04/08 05:22:33;;;;;;;4.90;3.53;;;;;;;17.09;62.76;100299.03;5400489;26;20252;-60
2024/04/08 05:25:04;;;;;;;4.85;3.42;;;;;;;17.12;62.64;100291.97;5374886;26;20361;-61
2024/04/08 05:27:31;;;;;;;6.43;3.75;;;;;;;17.10;62.41;100295.53;5372226;26;20621;-60
2024/04/08 05:30:01;;;;;;;5.10;3.58;;;;;;;17.08;62.85;100294.72;5383862;26;20248;-59
2024/04/08 05:32:28;;;;;;;4.63;3.28;;;;;;;17.01;62.69;100298.44;5396542;26;20287;-59
2024/04/08 05:34:58;;;;;;;6.53;4.03;;;;;;;16.98;62.55;100289.00;5401385;26;20234;-59
2024/04/08 05:37:28;;;;;;;7.07;3.85;;;;;;;17.01;63.00;100303.63;5381038;26;20333;-60
2024/04/08 05:40:01;;;;;;;6.43;3.95;;;;;;;17.02;63.32;100310.56;5381447;26;20256;-58
2024/04/08 05:42:28;;;;;;;10.48;4.05;;;;;;;17.01;63.04;100301.03;5388243;26;20244;-61
2024/04/08 05:44:58;;;;;;;6.15;3.47;;;;;;;17.05;63.23;100307.84;5388115;26;20267;-60
2024/04/08 05:47:26;;;;;;;4.78;3.60;;;;;;;17.10;63.09;100301.56;5384424;26;20796;-58
2024/04/08 05:49:56;;;;;;;7.05;3.50;;;;;;;17.18;63.61;100306.53;5383996;26;20366;-60
2024/04/08 05:52:23;;;;;;;6.22;4.03;;;;;;;17.29;63.09;100304.38;5381935;26;20722;-61
2024/04/08 05:54:53;;;;;;;6.38;4.32;;;;;;;17.39;63.18;100297.97;5380919;26;20240;-60
2024/04/08 05:57:24;;;;;;;4.50;3.70;;;;;;;17.50;62.57;100302.78;5401951;26;20235;-60
2024/04/08 05:59:53;;;;;;;4.97;3.72;;;;;;;17.58;62.27;100305.97;5395745;26;20265;-61
2024/04/08 06:02:21;;;;;;;5.43;3.88;;;;;;;17.66;61.99;100303.06;5386515;26;20277;-59
2024/04/08 06:04:51;;;;;;;8.60;3.40;;;;;;;17.73;62.16;100295.88;5400112;26;20274;-59
2024/04/08 06:07:18;;;;;;;10.05;4.00;;;;;;;17.85;61.60;100296.28;5397107;26;20648;-61
2024/04/08 06:09:48;;;;;;;4.60;3.72;;;;;;;17.97;61.12;100296.75;5381291;26;20781;-61
2024/04/08 06:12:18;;;;;;;4.63;3.78;;;;;;;18.04;61.39;100293.00;5381481;26;20913;-60
2024/04/08 06:14:55;;;;;;;5.22;3.72;;;;;;;18.17;60.87;100311.63;5377632;26;20727;-61
2024/04/08 06:17:22;;;;;;;6.50;4.07;;;;;;;18.28;60.11;100301.63;5390395;26;22069;-61
2024/04/08 06:19:52;;;;;;;8.07;3.55;;;;;;;18.45;59.98;100296.59;5385103;26;20244;-61
2024/04/08 06:22:19;;;;;;;6.63;3.53;;;;;;;18.64;58.86;100294.09;5394551;26;20584;-60
2024/04/08 06:24:49;;;;;;;6.78;3.65;;;;;;;18.89;59.09;100295.72;5393161;26;20746;-57
2024/04/08 06:27:16;;;;;;;6.25;3.80;;;;;;;19.06;57.95;100301.06;5379337;26;20252;-57
2024/04/08 06:29:46;;;;;;;9.38;3.83;;;;;;;19.14;57.46;100298.13;5378386;26;20256;-58
2024/04/08 06:32:19;;;;;;;5.00;3.15;;;;;;;19.17;57.58;100301.47;5378966;26;20247;-60
2024/04/08 06:34:52;;;;;;;8.77;3.60;;;;;;;19.20;57.36;100306.56;5388243;26;20844;-60
2024/04/08 06:37:19;;;;;;;8.20;3.50;;;;;;;19.28;57.16;100298.41;5375693;26;20340;-60
2024/04/08 06:39:52;;;;;;;11.80;4.00;;;;;;;19.42;57.71;100301.25;5391335;26;20754;-57
2024/04/08 06:42:20;;;;;;;5.88;3.38;;;;;;;19.50;56.93;100299.16;5405373;26;20325;-57
2024/04/08 06:44:50;;;;;;;5.45;3.58;;;;;;;19.58;56.65;100304.03;5390592;26;20293;-56
2024/04/08 06:47:20;;;;;;;4.82;3.67;;;;;;;19.65;56.79;100305.47;5416044;26;20219;-56
2024/04/08 06:49:50;;;;;;;7.68;3.75;;;;;;;19.71;56.43;100312.22;5384585;26;20841;-57
2024/04/08 06:52:18;;;;;;;7.60;3.45;;;;;;;19.82;55.91;100302.13;5367321;26;20261;-58
2024/04/08 06:54:48;;;;;;;5.32;3.78;;;;;;;20.01;55.73;100308.19;5382985;26;20279;-59
2024/04/08 06:57:15;;;;;;;7.18;3.75;;;;;;;20.33;55.30;100305.00;5394201;26;20237;-57
2024/04/08 06:59:45;;;;;;;7.40;3.58;;;;;;;20.55;54.63;100304.84;5380512;26;20278;-57
2024/04/08 07:02:12;;;;;;;4.88;3.58;;;;;;;20.79;53.60;100308.00;5388227;26;20796;-64
2024/04/08 07:04:44;;;;;;;6.53;3.92;;;;;;;20.89;53.02;100309.25;5383178;26;20773;-59
2024/04/08 07:07:12;;;;;;;6.35;3.28;;;;;;;20.94;52.81;100315.09;5378701;26;20389;-63
2024/04/08 07:09:42;;;;;;;8.73;3.13;;;;;;;21.03;54.78;100317.28;5371610;26;20248;-58
2024/04/08 07:12:09;;;;;;;8.02;3.60;;;;;;;21.09;54.96;100316.94;5351899;26;20271;-63
2024/04/08 07:14:39;;;;;;;6.32;3.70;;;;;;;20.98;53.00;100316.63;5379311;26;20241;-62
2024/04/08 07:17:06;;;;;;;6.15;3.72;;;;;;;20.88;54.76;100315.44;5389887;26;20735;-69
2024/04/08 07:19:36;;;;;;;5.80;3.60;;;;;;;20.91;53.48;100316.13;5380875;26;20282;-61
2024/04/08 07:22:07;;;;;;;4.85;3.60;;;;;;;21.10;53.15;100304.69;5380915;26;20248;-57
2024/04/08 07:24:37;;;;;;;6.35;3.40;;;;;;;21.30;52.84;100303.69;5394752;26;20722;-57
2024/04/08 07:27:05;;;;;;;4.97;3.22;;;;;;;21.64;52.21;100300.16;5379856;26;20251;-58
2024/04/08 07:29:35;;;;;;;4.00;3.40;;;;;;;21.98;51.34;100304.41;5390719;26;20538;-58
2024/04/08 07:32:03;;;;;;;12.80;3.80;;;;;;;22.31;50.06;100296.47;5394857;26;20980;-58
2024/04/08 07:34:32;;;;;;;5.85;3.22;;;;;;;22.53;49.51;100293.47;5386549;26;20242;-57
2024/04/08 07:36:59;;;;;;;5.97;3.25;;;;;;;22.79;49.10;100299.00;5383193;26;20738;-57
2024/04/08 07:39:32;;;;;;;8.43;3.45;;;;;;;22.99;48.43;100290.84;5384546;26;20581;-57
2024/04/08 07:42:05;;;;;;;5.95;3.38;;;;;;;23.15;48.15;100291.63;5380378;26;20287;-58
2024/04/08 07:44:34;;;;;;;5.38;3.15;;;;;;;23.20;47.25;100286.09;5378064;26;20248;-58
2024/04/08 07:47:02;;;;;;;6.18;3.25;;;;;;;23.24;47.57;100297.28;5381920;26;20774;-59
2024/04/08 07:49:31;;;;;;;6.43;3.30;;;;;;;23.23;47.65;100288.53;5380446;26;20786;-60
2024/04/08 07:51:59;;;;;;;4.25;2.90;;;;;;;23.23;48.12;100285.06;5379425;26;20228;-59
2024/04/08 07:54:32;;;;;;;8.95;3.70;;;;;;;23.23;47.77;100280.66;5381438;26;20300;-60
2024/04/08 07:56:59;;;;;;;7.47;3.33;;;;;;;23.20;48.27;100287.88;5377476;26;20346;-60
2024/04/08 07:59:29;;;;;;;5.28;2.78;;;;;;;23.11;47.76;100284.03;5378596;26;20270;-60
2024/04/08 08:01:56;;;;;;;6.30;2.80;;;;;;;23.11;48.79;100282.22;5378508;26;20248;-60
2024/04/08 08:04:26;;;;;;;4.75;2.90;;;;;;;23.20;48.13;100287.88;5379114;26;20341;-60
2024/04/08 08:06:53;;;;;;;7.38;3.20;;;;;;;23.20;47.69;100287.88;5376976;26;20278;-62
2024/04/08 08:09:23;;;;;;;4.30;2.83;;;;;;;23.20;48.05;100285.25;5379009;26;20224;-62
2024/04/08 08:11:56;;;;;;;4.25;3.28;;;;;;;23.29;47.87;100289.97;5378884;26;20617;-62
2024/04/08 08:14:26;;;;;;;6.90;3.10;;;;;;;23.41;47.70;100286.56;5376339;26;20248;-60
2024/04/08 08:16:56;;;;;;;5.35;2.85;;;;;;;23.59;47.59;100282.81;5379069;26;20631;-61
2024/04/08 08:19:26;;;;;;;5.50;3.00;;;;;;;23.81;46.82;100282.34;5378249;26;20248;-58
2024/04/08 08:21:56;;;;;;;6.38;2.95;;;;;;;24.06;47.19;100281.66;5411086;26;20274;-62
2024/04/08 08:24:26;;;;;;;6.35;3.33;;;;;;;24.38;46.35;100281.38;5408940;26;20803;-60
2024/04/08 08:26:58;;;;;;;7.07;3.28;;;;;;;24.69;45.94;100279.38;5376363;26;20236;-62
2024/04/08 08:29:29;;;;;;;5.10;3.15;;;;;;;24.97;46.06;100273.09;5379073;26;20988;-62
2024/04/08 08:32:00;;;;;;;4.68;2.67;;;;;;;25.20;45.24;100276.81;5376088;26;20278;-62
2024/04/08 08:34:30;;;;;;;4.35;2.80;;;;;;;25.39;44.42;100279.03;5378807;26;20236;-62
2024/04/08 08:37:00;;;;;;;2.80;2.47;;;;;;;25.51;43.54;100268.44;5378901;26;20236;-62
2024/04/08 08:39:27;;;;;;;5.05;2.70;;;;;;;25.69;43.03;100265.47;5376778;26;20264;-62
2024/04/08 08:42:02;;;;;;;4.32;2.40;;;;;;;25.83;42.14;100270.66;5377281;26;20244;-62
2024/04/08 08:44:32;;;;;;;4.25;2.15;;;;;;;25.98;42.13;100263.41;5374986;26;20265;-61
2024/04/08 08:47:02;;;;;;;4.00;2.70;;;;;;;26.06;41.71;100258.41;5378294;26;20308;-61
2024/04/08 08:49:29;;;;;;;5.47;1.98;;;;;;;26.18;41.23;100243.47;5375801;26;20582;-61
2024/04/08 08:52:00;;;;;;;4.82;2.40;;;;;;;26.28;41.04;100247.13;5359967;26;20329;-62
2024/04/08 08:54:30;;;;;;;4.32;2.40;;;;;;;26.33;40.06;100244.13;5380891;26;20337;-60
2024/04/08 08:57:05;;;;;;;4.22;2.67;;;;;;;26.39;40.11;100247.16;5399644;26;20328;-61
2024/04/08 08:59:32;;;;;;;4.43;2.60;;;;;;;26.39;39.83;100248.97;5382671;26;20342;-62
2024/04/08 09:02:02;;;;;;;6.75;2.78;;;;;;;26.21;40.17;100248.53;5377581;26;20237;-58
2024/04/08 09:04:30;;;;;;;7.82;2.30;;;;;;;26.16;41.03;100242.75;5379068;26;20248;-63
2024/04/08 09:07:00;;;;;;;4.25;2.55;;;;;;;26.23;40.56;100251.91;5376703;26;20244;-63
2024/04/08 09:09:27;;;;;;;2.67;2.33;;;;;;;26.16;39.97;100242.75;5388038;26;20730;-66
2024/04/08 09:11:58;;;;;;;4.47;2.63;;;;;;;25.97;40.05;100246.75;5388766;26;20229;-65
2024/04/08 09:14:30;;;;;;;6.80;2.80;;;;;;;25.87;40.35;100242.22;5404853;26;20289;-65
2024/04/08 09:17:07;;;;;;;3.38;2.50;;;;;;;25.95;40.58;100239.88;5386219;26;20656;-64
2024/04/08 09:19:35;;;;;;;3.88;2.47;;;;;;;26.09;40.20;100230.94;5380963;26;20349;-66
2024/04/08 09:22:05;;;;;;;2.80;2.40;;;;;;;26.04;40.06;100227.81;5381572;26;20225;-64
2024/04/08 09:24:33;;;;;;;5.55;2.30;;;;;;;26.04;40.19;100233.94;5392149;26;20386;-64
2024/04/08 09:27:03;;;;;;;4.20;2.17;;;;;;;26.17;39.93;100239.16;5381671;26;20303;-65
2024/04/08 09:29:35;;;;;;;4.22;2.42;;;;;;;26.29;39.72;100240.03;5377356;26;20759;-65
2024/04/08 09:32:08;;;;;;;5.63;2.75;;;;;;;26.39;39.67;100239.25;5396438;26;20396;-64
2024/04/08 09:34:35;;;;;;;4.45;2.05;;;;;;;26.52;39.09;100241.03;5399479;26;20562;-65
2024/04/08 09:37:06;;;;;;;5.03;2.40;;;;;;;26.56;38.42;100245.13;5416675;26;20396;-64
2024/04/08 09:39:37;;;;;;;4.40;2.55;;;;;;;26.71;38.68;100238.66;5393413;26;20680;-65
2024/04/08 09:42:11;;;;;;;4.90;2.80;;;;;;;26.91;38.25;100235.31;5380640;26;20277;-65
2024/04/08 09:44:43;;;;;;;3.22;2.20;;;;;;;26.97;37.98;100234.88;5383142;26;20826;-64
2024/04/08 09:47:15;;;;;;;4.22;2.25;;;;;;;27.09;38.81;100232.22;5388930;26;20236;-66
2024/04/08 09:49:44;;;;;;;4.20;2.53;;;;;;;27.21;38.54;100220.72;5385256;26;20239;-63
2024/04/08 09:52:22;;;;;;;7.35;2.40;;;;;;;27.35;38.24;100220.47;5391865;26;20268;-63
2024/04/08 09:54:49;;;;;;;6.57;2.50;;;;;;;27.48;37.83;100222.19;5394057;26;20235;-63
2024/04/08 09:57:20;;;;;;;5.47;2.38;;;;;;;27.50;36.56;100218.41;5386617;26;20247;-63
2024/04/08 09:59:54;;;;;;;2.88;2.42;;;;;;;27.34;36.40;100212.69;5384666;26;20645;-64
2024/04/08 10:02:32;;;;;;;4.07;2.33;;;;;;;27.17;36.77;100221.91;5381181;26;20706;-62
2024/04/08 10:05:04;;;;;;;4.40;2.08;;;;;;;27.10;36.77;100218.03;5391773;26;20299;-62
2024/04/08 10:07:35;;;;;;;3.83;2.15;;;;;;;27.10;36.86;100215.41;5369984;26;20610;-64
2024/04/08 10:10:03;;;;;;;2.33;1.98;;;;;;;27.21;36.31;100218.94;5390411;26;20270;-64
2024/04/08 10:12:34;;;;;;;4.85;2.03;;;;;;;27.32;35.49;100219.88;5387808;26;20236;-63
2024/04/08 10:15:10;;;;;;;4.75;2.03;;;;;;;27.37;35.06;100210.63;5378099;26;20232;-64
2024/04/08 10:17:43;;;;;;;2.17;1.65;;;;;;;27.42;35.24;100211.09;5373775;26;20286;-64
2024/04/08 10:20:13;;;;;;;3.35;1.90;;;;;;;27.42;35.38;100197.84;5385938;26;20275;-63
2024/04/08 10:22:43;;;;;;;4.10;1.90;;;;;;;27.57;35.51;100210.84;5387236;26;20318;-65
2024/04/08 10:25:34;;;;;;;2.53;2.00;;;;;;;27.72;35.25;100208.75;5380847;26;20224;-63
2024/04/08 10:28:09;;;;;;;4.53;1.80;;;;;;;27.85;34.90;100194.44;5388477;26;20266;-62
2024/04/08 10:30:44;;;;;;;2.25;1.88;;;;;;;27.98;35.06;100202.22;5407325;26;20344;-65
2024/04/08 10:33:13;;;;;;;4.03;2.03;;;;;;;28.03;34.05;100199.22;5384562;26;20258;-62
2024/04/08 10:35:43;;;;;;;3.65;2.03;;;;;;;28.20;33.94;100198.63;5381248;26;20232;-63
2024/04/08 10:38:11;;;;;;;5.22;2.13;;;;;;;28.22;33.67;100188.78;5380421;26;20232;-60
2024/04/08 10:40:42;;;;;;;4.32;1.95;;;;;;;28.37;33.71;100191.94;5372845;26;20291;-64
2024/04/08 10:43:09;;;;;;;2.42;1.80;;;;;;;28.66;33.29;100189.53;5372525;26;20263;-64
2024/04/08 10:45:41;;;;;;;3.95;1.85;;;;;;;28.97;32.63;100189.53;5382036;26;20761;-58
2024/04/08 10:48:11;;;;;;;4.90;2.00;;;;;;;29.37;31.89;100163.03;5347778;26;20342;-63
2024/04/08 10:50:42;;;;;;;6.90;2.10;;;;;;;29.30;31.30;100167.22;5413625;26;20243;-63
2024/04/08 10:53:09;;;;;;;2.47;1.63;;;;;;;28.97;32.01;100160.38;5361263;26;20311;-65
2024/04/08 10:55:39;;;;;;;3.60;2.05;;;;;;;28.90;32.51;100160.03;5373993;26;20638;-62
2024/04/08 10:58:07;;;;;;;3.88;2.03;;;;;;;28.82;33.32;100152.75;5380620;26;20267;-62
2024/04/08 11:00:37;;;;;;;4.63;1.88;;;;;;;28.61;32.15;100159.91;5380596;26;20225;-63
2024/04/08 11:03:08;;;;;;;4.07;2.10;;;;;;;28.26;32.78;100176.94;5381261;26;20594;-63
2024/04/08 11:05:39;;;;;;;3.63;1.73;;;;;;;28.08;32.74;100170.53;5379615;26;20248;-62
2024/04/08 11:08:08;;;;;;;3.80;1.88;;;;;;;28.05;33.00;100171.59;5380426;26;20690;-63
2024/04/08 11:10:37;;;;;;;4.05;2.20;;;;;;;28.16;32.97;100165.41;5378596;26;20845;-64
2024/04/08 11:13:07;;;;;;;3.97;1.90;;;;;;;28.26;33.04;100165.50;5380334;26;20288;-62
2024/04/08 11:15:37;;;;;;;1.95;1.75;;;;;;;28.20;32.90;100156.25;5380252;26;20224;-61
2024/04/08 11:18:09;;;;;;;3.05;1.90;;;;;;;28.18;33.09;100155.56;5380667;26;20344;-62
2024/04/08 11:20:39;;;;;;;5.20;1.98;;;;;;;28.18;33.41;100148.44;5380216;26;20271;-62
2024/04/08 11:23:06;;;;;;;2.33;1.80;;;;;;;28.29;33.47;100150.19;5380251;26;20240;-63
2024/04/08 11:25:36;;;;;;;4.35;1.90;;;;;;;28.26;32.35;100139.84;5378038;26;20700;-63
2024/04/08 11:28:04;;;;;;;3.95;1.90;;;;;;;28.24;32.20;100147.06;5380443;26;20232;-62
2024/04/08 11:30:37;;;;;;;2.70;1.63;;;;;;;28.24;32.28;100140.94;5379446;26;20220;-62
2024/04/08 11:33:05;;;;;;;2.40;2.15;;;;;;;28.21;32.63;100136.75;5379681;26;20756;-62
2024/04/08 11:35:38;;;;;;;4.13;2.00;;;;;;;28.27;32.32;100132.72;5379311;26;20286;-62